createdAt,value
2019-04-23T00:01:23.244Z,4.17
2019-04-23T00:03:45.759Z,7.08
2019-04-23T00:06:21.773Z,4.60
2019-04-23T00:08:48.989Z,4.78
2019-04-23T00:11:21.840Z,8.25
2019-04-23T00:16:21.940Z,3.77
2019-04-23T00:24:23.758Z,4.83
2019-04-23T00:26:36.636Z,6.45
2019-04-23T00:29:08.682Z,4.95
2019-04-23T00:31:44.290Z,5.87
2019-04-23T00:34:01.080Z,7.72
2019-04-23T00:36:44.299Z,5.17
2019-04-23T00:39:18.785Z,7.58
2019-04-23T00:41:36.624Z,5.67
2019-04-23T00:51:32.050Z,4.40
2019-04-23T00:53:56.751Z,5.72
2019-04-23T00:56:40.261Z,7.53
2019-04-23T00:59:02.733Z,6.65
2019-04-23T01:01:41.291Z,5.25
2019-04-23T01:04:10.238Z,5.20
2019-04-23T01:06:29.118Z,5.87
2019-04-23T01:09:02.154Z,6.25
2019-04-23T01:14:01.109Z,4.05
2019-04-23T01:16:33.229Z,6.53
2019-04-23T01:19:24.423Z,6.30
2019-04-23T01:21:35.040Z,5.80
2019-04-23T01:27:39.676Z,5.95
2019-04-23T01:30:05.082Z,5.80
2019-04-23T01:32:32.079Z,5.15
2019-04-23T01:35:09.688Z,4.53
2019-04-23T01:37:31.790Z,5.33
2019-04-23T01:39:57.684Z,4.60
2019-04-23T01:42:35.979Z,5.97
2019-04-23T01:45:11.648Z,4.35
2019-04-23T01:47:31.731Z,5.03
2019-04-23T01:50:08.276Z,5.15
2019-04-23T01:52:38.096Z,7.78
2019-04-23T01:55:10.006Z,5.45
2019-04-23T01:57:42.281Z,5.87
2019-04-23T02:00:11.642Z,5.55
2019-04-23T02:05:09.839Z,6.80
2019-04-23T02:07:45.650Z,7.75
2019-04-23T02:10:17.059Z,8.63
2019-04-23T02:12:43.394Z,5.33
2019-04-23T02:15:12.231Z,10.35
2019-04-23T02:17:36.249Z,5.50
2019-04-23T02:20:14.170Z,6.20
2019-04-23T02:22:51.863Z,7.72
2019-04-23T02:25:24.878Z,7.37
2019-04-23T02:27:58.225Z,5.95
2019-04-23T02:30:49.381Z,9.08
2019-04-23T02:32:59.386Z,5.08
2019-04-23T02:38:00.847Z,6.80
2019-04-23T02:40:26.667Z,9.83
2019-04-23T02:48:08.921Z,6.85
2019-04-23T02:52:56.184Z,5.83
2019-04-23T02:55:31.142Z,6.10
2019-04-23T02:57:50.353Z,6.20
2019-04-23T03:00:27.763Z,5.85
2019-04-23T03:02:59.123Z,6.35
2019-04-23T03:05:31.958Z,6.78
2019-04-23T03:07:54.256Z,8.15
2019-04-23T03:10:23.008Z,7.22
2019-04-23T03:13:07.408Z,6.60
2019-04-23T03:16:08.506Z,5.83
2019-04-23T03:18:35.305Z,7.67
2019-04-23T03:21:05.953Z,6.15
2019-04-23T03:26:25.201Z,6.37
2019-04-23T03:28:57.025Z,6.05
2019-04-23T03:38:51.928Z,10.55
2019-04-23T03:41:21.037Z,12.65
2019-04-23T03:43:41.188Z,7.35
2019-04-23T03:46:24.524Z,9.40
2019-04-23T03:48:47.208Z,7.53
2019-04-23T03:51:20.351Z,10.32
2019-04-23T03:56:24.159Z,8.08
2019-04-23T03:58:46.990Z,10.82
2019-04-23T04:01:22.799Z,8.48
2019-04-23T04:06:23.837Z,6.95
2019-04-23T04:08:58.535Z,8.40
2019-04-23T04:11:25.088Z,5.50
2019-04-23T04:16:21.846Z,7.50
2019-04-23T04:23:51.325Z,10.13
2019-04-23T04:26:22.687Z,11.65
2019-04-23T04:28:54.089Z,8.05
2019-04-23T04:31:26.174Z,8.18
2019-04-23T04:41:25.494Z,6.15
2019-04-23T04:44:05.465Z,6.90
2019-04-23T04:46:30.503Z,8.10
2019-04-23T04:51:27.110Z,12.73
2019-04-23T04:54:01.123Z,9.50
2019-04-23T04:56:40.480Z,8.70
2019-04-23T04:58:59.616Z,9.20
2019-04-23T05:03:43.259Z,8.90
2019-04-23T05:06:22.075Z,9.30
2019-04-23T05:08:58.416Z,5.87
2019-04-23T05:11:26.729Z,6.67
2019-04-23T05:13:55.355Z,6.10
2019-04-23T05:16:23.812Z,10.10
2019-04-23T05:19:08.565Z,10.25
2019-04-23T05:21:35.718Z,9.10
2019-04-23T05:24:00.877Z,11.78
2019-04-23T05:26:20.966Z,9.38
2019-04-23T05:33:59.900Z,8.30
2019-04-23T05:39:07.699Z,7.67
2019-04-23T05:44:05.125Z,6.85
2019-04-23T05:46:42.210Z,8.53
2019-04-23T05:49:02.755Z,12.58
2019-04-23T05:51:44.569Z,9.48
2019-04-23T05:53:58.267Z,10.32
2019-04-23T05:56:27.743Z,13.18
2019-04-23T05:58:58.079Z,9.85
2019-04-23T06:01:49.329Z,11.85
2019-04-23T06:06:37.547Z,8.93
2019-04-23T06:09:03.569Z,11.25
2019-04-23T06:11:39.569Z,8.18
2019-04-23T06:14:06.343Z,8.33
2019-04-23T06:16:35.627Z,8.35
2019-04-23T06:19:07.107Z,13.62
2019-04-23T06:21:52.914Z,7.80
2019-04-23T06:24:09.993Z,10.95
2019-04-23T06:26:40.070Z,8.93
2019-04-23T06:29:05.010Z,24.63
2019-04-23T06:31:41.493Z,15.83
2019-04-23T06:34:13.557Z,8.98
2019-04-23T06:36:34.339Z,8.98
2019-04-23T06:41:37.541Z,8.05
2019-04-23T06:44:14.499Z,11.65
2019-04-23T06:46:44.647Z,7.62
2019-04-23T06:49:11.158Z,9.75
2019-04-23T06:51:46.495Z,10.08
2019-04-23T06:54:12.279Z,10.98
2019-04-23T06:56:44.763Z,8.90
2019-04-23T06:59:12.034Z,11.57
2019-04-23T07:01:51.164Z,9.60
2019-04-23T07:04:15.151Z,10.30
2019-04-23T07:06:46.841Z,12.90
2019-04-23T07:11:40.219Z,9.20
2019-04-23T07:14:02.476Z,9.88
2019-04-23T07:16:38.465Z,12.05
2019-04-23T07:19:18.396Z,8.80
2019-04-23T07:21:41.832Z,13.22
2019-04-23T07:24:16.506Z,11.20
2019-04-23T07:29:18.936Z,20.88
2019-04-23T07:31:50.041Z,14.55
2019-04-23T07:34:15.662Z,9.45
2019-04-23T07:36:41.136Z,21.85
2019-04-23T07:39:23.347Z,17.48
2019-04-23T07:42:16.841Z,16.52
2019-04-23T07:47:51.966Z,12.47
2019-04-23T07:50:26.187Z,13.48
2019-04-23T07:52:57.600Z,14.55
2019-04-23T07:55:31.009Z,10.88
2019-04-23T07:57:57.037Z,12.55
2019-04-23T08:00:22.946Z,13.53
2019-04-23T08:02:43.521Z,12.30
2019-04-23T08:07:49.737Z,13.35
2019-04-23T08:10:16.751Z,9.33
2019-04-23T08:12:47.062Z,9.18
2019-04-23T08:15:23.019Z,10.23
2019-04-23T08:17:45.075Z,11.33
2019-04-23T08:20:23.056Z,10.58
2019-04-23T08:22:49.537Z,14.15
2019-04-23T08:25:19.334Z,10.93
2019-04-23T08:27:49.977Z,11.93
2019-04-23T08:30:19.675Z,10.38
2019-04-23T08:32:54.280Z,13.40
2019-04-23T08:35:19.956Z,10.93
2019-04-23T08:38:02.666Z,9.53
2019-04-23T08:42:58.169Z,14.00
2019-04-23T08:48:29.062Z,13.80
2019-04-23T08:55:53.725Z,17.85
2019-04-23T08:58:22.477Z,16.37
2019-04-23T09:00:55.322Z,10.23
2019-04-23T09:05:54.331Z,10.80
2019-04-23T09:08:21.828Z,16.23
2019-04-23T09:10:58.095Z,15.23
2019-04-23T09:15:51.105Z,11.78
2019-04-23T09:18:22.947Z,22.62
2019-04-23T09:20:41.434Z,10.38
2019-04-23T09:23:28.290Z,14.00
2019-04-23T09:28:27.538Z,13.05
2019-04-23T09:30:57.413Z,13.53
2019-04-23T09:33:36.231Z,11.83
2019-04-23T09:36:18.436Z,14.05
2019-04-23T09:38:46.766Z,15.83
2019-04-23T09:41:27.671Z,12.35
2019-04-23T09:44:14.497Z,16.10
2019-04-23T09:46:40.524Z,12.03
2019-04-23T09:51:35.834Z,16.48
2019-04-23T09:54:09.186Z,14.70
2019-04-23T09:59:15.693Z,10.78
2019-04-23T10:01:29.119Z,9.10
2019-04-23T10:03:57.053Z,14.70
2019-04-23T10:06:20.284Z,15.45
2019-04-23T10:08:49.049Z,13.13
2019-04-23T10:11:13.607Z,11.12
2019-04-23T10:13:42.805Z,11.33
2019-04-23T10:16:15.618Z,12.00
2019-04-23T10:18:41.718Z,13.03
2019-04-23T10:21:11.281Z,10.75
2019-04-23T10:23:41.247Z,17.37
2019-04-23T10:26:10.137Z,14.73
2019-04-23T10:28:47.666Z,11.55
2019-04-23T10:31:16.747Z,11.18
2019-04-23T10:33:46.158Z,11.60
2019-04-23T10:36:19.073Z,14.98
2019-04-23T10:38:54.319Z,13.45
2019-04-23T10:41:16.070Z,11.93
2019-04-23T10:43:48.803Z,12.58
2019-04-23T10:46:43.365Z,13.25
2019-04-23T10:54:28.666Z,73.70
2019-04-23T10:56:59.780Z,59.20
2019-04-23T11:02:29.212Z,19.23
2019-04-23T11:05:00.451Z,19.00
2019-04-23T11:07:27.183Z,16.12
2019-04-23T11:18:07.228Z,11.85
2019-04-23T11:20:27.404Z,15.70
2019-04-23T11:25:26.310Z,13.85
2019-04-23T11:27:53.902Z,10.65
2019-04-23T11:30:27.435Z,12.43
2019-04-23T11:32:54.291Z,16.80
2019-04-23T11:35:31.057Z,13.45
2019-04-23T11:40:23.242Z,18.75
2019-04-23T11:42:59.618Z,16.73
2019-04-23T11:45:50.676Z,12.75
2019-04-23T11:50:27.819Z,12.65
2019-04-23T11:53:01.077Z,12.80
2019-04-23T11:55:32.727Z,17.10
2019-04-23T11:58:02.732Z,16.93
2019-04-23T12:00:33.677Z,14.05
2019-04-23T12:02:51.154Z,12.25
2019-04-23T12:05:41.452Z,13.68
2019-04-23T12:07:57.663Z,13.05
2019-04-23T12:10:43.711Z,12.80
2019-04-23T12:13:10.540Z,11.33
2019-04-23T12:15:32.132Z,14.68
2019-04-23T12:18:05.469Z,16.12
2019-04-23T12:23:18.174Z,11.97
2019-04-23T12:25:31.246Z,12.98
2019-04-23T12:27:50.458Z,13.62
2019-04-23T12:35:36.876Z,13.05
2019-04-23T12:45:35.524Z,17.12
2019-04-23T12:50:50.077Z,11.88
2019-04-23T12:53:23.682Z,11.30
2019-04-23T12:58:15.700Z,11.78
2019-04-23T13:00:38.963Z,16.37
2019-04-23T13:03:16.927Z,12.90
2019-04-23T13:05:53.046Z,15.15
2019-04-23T13:10:47.967Z,15.95
2019-04-23T13:16:02.845Z,16.73
2019-04-23T13:18:19.601Z,15.40
2019-04-23T13:25:57.046Z,13.18
2019-04-23T13:28:35.490Z,7.67
2019-04-23T13:31:08.397Z,11.15
2019-04-23T13:33:42.106Z,11.45
2019-04-23T13:38:38.277Z,12.47
2019-04-23T13:41:09.085Z,11.05
2019-04-23T13:48:27.645Z,20.00
2019-04-23T13:51:07.243Z,13.45
2019-04-23T13:53:39.410Z,19.07
2019-04-23T13:56:15.330Z,10.40
2019-04-23T13:58:34.450Z,21.68
2019-04-23T14:03:40.836Z,17.05
2019-04-23T14:06:18.147Z,14.35
2019-04-23T14:08:47.008Z,18.05
2019-04-23T14:16:22.763Z,11.43
2019-04-23T14:18:58.000Z,17.52
2019-04-23T14:31:17.227Z,19.90
2019-04-23T14:33:58.408Z,13.95
2019-04-23T14:36:19.372Z,13.75
2019-04-23T14:38:49.222Z,15.63
2019-04-23T14:41:23.536Z,17.12
2019-04-23T14:43:56.070Z,13.40
2019-04-23T14:48:56.968Z,13.62
2019-04-23T14:51:32.090Z,12.18
2019-04-23T14:54:03.463Z,20.50
2019-04-23T14:56:29.824Z,14.87
2019-04-23T14:59:07.198Z,18.25
2019-04-23T15:06:41.131Z,16.60
2019-04-23T15:09:07.429Z,13.53
2019-04-23T15:13:53.846Z,14.50
2019-04-23T15:16:33.412Z,16.42
2019-04-23T15:24:06.971Z,21.70
2019-04-23T15:27:23.027Z,19.87
2019-04-23T15:28:43.729Z,17.23
2019-04-23T15:31:33.080Z,16.65
2019-04-23T15:39:11.610Z,22.15
2019-04-23T15:41:45.096Z,16.70
2019-04-23T15:46:40.976Z,20.82
2019-04-23T15:51:35.799Z,19.45
2019-04-23T15:54:14.098Z,16.07
2019-04-23T15:56:41.460Z,16.27
2019-04-23T16:01:34.060Z,13.65
2019-04-23T16:03:39.634Z,18.65
2019-04-23T16:06:10.692Z,16.05
2019-04-23T16:16:47.769Z,17.52
2019-04-23T16:19:13.698Z,15.90
2019-04-23T16:22:01.931Z,14.10
2019-04-23T16:24:17.625Z,20.17
2019-04-23T16:26:51.027Z,16.97
2019-04-23T16:29:32.887Z,12.58
2019-04-23T16:31:50.854Z,18.35
2019-04-23T16:34:23.899Z,17.90
2019-04-23T16:36:54.661Z,17.82
2019-04-23T16:39:16.908Z,16.35
2019-04-23T16:46:56.288Z,20.02
2019-04-23T16:51:48.876Z,14.15
2019-04-23T16:54:26.747Z,20.35
2019-04-23T17:02:03.551Z,16.48
2019-04-23T17:04:27.628Z,17.95
2019-04-23T17:06:53.417Z,16.30
2019-04-23T17:09:34.123Z,19.40
2019-04-23T17:12:03.079Z,16.12
2019-04-23T17:14:23.204Z,19.15
2019-04-23T17:16:49.618Z,15.13
2019-04-23T17:19:29.422Z,20.48
2019-04-23T17:21:59.815Z,17.55
2019-04-23T17:24:23.314Z,14.63
2019-04-23T17:26:57.389Z,17.60
2019-04-23T17:31:49.092Z,19.50
2019-04-23T17:34:32.183Z,18.75
2019-04-23T17:37:13.131Z,16.73
2019-04-23T17:39:55.027Z,19.23
2019-04-23T17:42:30.664Z,19.37
2019-04-23T17:47:37.270Z,15.65
2019-04-23T17:50:05.617Z,19.87
2019-04-23T17:52:34.942Z,18.73
2019-04-23T17:55:10.209Z,23.30
2019-04-23T17:57:39.380Z,22.98
2019-04-23T18:00:17.957Z,18.23
2019-04-23T18:05:09.836Z,18.23
2019-04-23T18:07:44.867Z,19.10
2019-04-23T18:15:04.903Z,22.90
2019-04-23T18:20:12.436Z,20.92
2019-04-23T18:23:00.323Z,14.65
2019-04-23T18:30:17.751Z,20.35
2019-04-23T18:33:44.660Z,19.95
2019-04-23T18:40:57.795Z,22.02
2019-04-23T18:43:13.768Z,27.00
2019-04-23T18:45:46.681Z,20.05
2019-04-23T18:51:03.477Z,26.10
2019-04-23T18:56:06.896Z,30.65
2019-04-23T18:58:47.169Z,32.70
2019-04-23T19:01:20.009Z,36.17
2019-04-23T19:09:22.452Z,22.65
2019-04-23T19:11:58.215Z,28.55
2019-04-23T19:14:35.896Z,29.55
2019-04-23T19:17:09.074Z,35.08
2019-04-23T19:19:29.664Z,26.60
2019-04-23T19:24:28.545Z,41.80
2019-04-23T19:29:30.662Z,33.63
2019-04-23T19:31:56.762Z,32.90
2019-04-23T19:34:35.606Z,27.80
2019-04-23T19:37:01.326Z,23.62
2019-04-23T19:39:33.782Z,26.97
2019-04-23T19:47:23.345Z,20.60
2019-04-23T19:49:32.739Z,18.75
2019-04-23T19:51:59.561Z,23.05
2019-04-23T19:57:19.662Z,14.07
2019-04-23T20:02:09.621Z,21.65
2019-04-23T20:04:42.821Z,25.15
2019-04-23T20:07:22.479Z,24.98
2019-04-23T20:10:03.523Z,22.32
2019-04-23T20:12:05.908Z,18.62
2019-04-23T20:14:44.342Z,20.65
2019-04-23T20:19:44.817Z,22.75
2019-04-23T20:29:50.984Z,18.50
2019-04-23T20:32:07.168Z,21.60
2019-04-23T20:35:00.250Z,19.48
2019-04-23T20:37:47.351Z,27.60
2019-04-23T20:42:40.495Z,12.90
2019-04-23T20:44:58.961Z,19.62
2019-04-23T20:47:22.793Z,17.65
2019-04-23T20:49:48.005Z,27.35
2019-04-23T20:52:20.440Z,19.82
2019-04-23T21:00:01.888Z,18.98
2019-04-23T21:15:37.415Z,25.57
2019-04-23T21:18:09.546Z,21.95
2019-04-23T21:20:30.079Z,18.15
2019-04-23T21:22:58.967Z,25.62
2019-04-23T21:25:25.471Z,14.43
2019-04-23T21:33:11.847Z,20.27
2019-04-23T21:36:02.885Z,22.32
2019-04-23T21:38:39.842Z,18.37
2019-04-23T21:41:11.128Z,20.95
2019-04-23T21:43:58.355Z,23.38
2019-04-23T21:46:15.240Z,18.10
2019-04-23T21:48:55.847Z,21.25
2019-04-23T21:51:09.500Z,18.60
2019-04-23T21:53:42.269Z,20.82
2019-04-23T21:56:09.054Z,21.42
2019-04-23T21:58:49.177Z,15.48
2019-04-23T22:01:23.735Z,15.95
2019-04-23T22:04:06.561Z,16.70
2019-04-23T22:06:25.539Z,22.75
2019-04-23T22:08:56.342Z,18.32
2019-04-23T22:11:49.537Z,16.40
2019-04-23T22:13:57.927Z,21.35
2019-04-23T22:19:56.953Z,18.70
2019-04-23T22:21:25.925Z,16.90
2019-04-23T22:23:58.286Z,21.80
2019-04-23T22:26:25.530Z,22.73
2019-04-23T22:29:00.892Z,15.75
2019-04-23T22:31:23.407Z,22.40
2019-04-23T22:33:53.335Z,19.52
2019-04-23T22:36:14.660Z,24.10
2019-04-23T22:38:49.202Z,22.58
2019-04-23T22:41:18.621Z,19.55
2019-04-23T22:44:05.207Z,21.52
2019-04-23T22:46:22.984Z,17.80
2019-04-23T22:49:14.333Z,17.45
2019-04-23T22:51:41.559Z,16.97
2019-04-23T22:56:35.121Z,20.85
2019-04-23T22:59:21.268Z,17.75
2019-04-23T23:01:50.465Z,18.90
2019-04-23T23:06:49.404Z,18.00
2019-04-23T23:09:23.202Z,13.68
2019-04-23T23:11:43.922Z,14.70
2019-04-23T23:14:16.968Z,15.40
2019-04-23T23:16:39.198Z,13.50
2019-04-23T23:19:16.900Z,20.12
2019-04-23T23:21:51.649Z,22.22
2019-04-23T23:24:07.471Z,18.05
2019-04-23T23:26:42.181Z,16.35
2019-04-23T23:29:05.806Z,20.80
2019-04-23T23:31:43.672Z,19.07
2019-04-23T23:34:06.809Z,19.30
2019-04-23T23:36:47.389Z,18.02
2019-04-23T23:39:18.106Z,16.35
2019-04-23T23:41:42.026Z,21.35
2019-04-23T23:44:28.486Z,19.30
2019-04-23T23:46:54.118Z,18.05
2019-04-23T23:49:13.893Z,21.20
2019-04-23T23:54:18.194Z,14.03
2019-04-23T23:56:39.275Z,19.70
2019-04-23T23:59:12.471Z,14.07
